sensor_id;sensor_type;location;lat;lon;timestamp;P1;durP1;ratioP1;P2;durP2;ratioP2
32323;SDS011;25666;44.350;9.222;2023-07-29T00:01:01;8.93;;;5.15;;
32323;SDS011;25666;44.350;9.222;2023-07-29T00:03:26;11.23;;;5.78;;
32323;SDS011;25666;44.350;9.222;2023-07-29T00:05:52;14.02;;;5.80;;
32323;SDS011;25666;44.350;9.222;2023-07-29T00:08:18;13.35;;;5.18;;
32323;SDS011;25666;44.350;9.222;2023-07-29T00:10:43;8.23;;;4.78;;
32323;SDS011;25666;44.350;9.222;2023-07-29T00:13:09;10.88;;;5.25;;
32323;SDS011;25666;44.350;9.222;2023-07-29T00:15:34;10.35;;;5.20;;
32323;SDS011;25666;44.350;9.222;2023-07-29T00:18:00;9.15;;;5.97;;
32323;SDS011;25666;44.350;9.222;2023-07-29T00:20:28;9.00;;;6.03;;
32323;SDS011;25666;44.350;9.222;2023-07-29T00:22:54;9.55;;;5.28;;
32323;SDS011;25666;44.350;9.222;2023-07-29T00:25:20;8.90;;;4.72;;
32323;SDS011;25666;44.350;9.222;2023-07-29T00:27:46;10.55;;;6.10;;
32323;SDS011;25666;44.350;9.222;2023-07-29T00:30:19;12.57;;;6.38;;
32323;SDS011;25666;44.350;9.222;2023-07-29T00:35:14;12.18;;;6.78;;
32323;SDS011;25666;44.350;9.222;2023-07-29T00:37:40;10.27;;;5.65;;
32323;SDS011;25666;44.350;9.222;2023-07-29T00:40:08;10.38;;;4.95;;
32323;SDS011;25666;44.350;9.222;2023-07-29T00:42:40;8.77;;;5.35;;
32323;SDS011;25666;44.350;9.222;2023-07-29T00:45:08;6.65;;;5.60;;
32323;SDS011;25666;44.350;9.222;2023-07-29T00:47:34;12.77;;;6.38;;
32323;SDS011;25666;44.350;9.222;2023-07-29T00:50:00;11.55;;;6.13;;
32323;SDS011;25666;44.350;9.222;2023-07-29T00:52:26;11.75;;;6.57;;
32323;SDS011;25666;44.350;9.222;2023-07-29T00:54:53;6.93;;;5.45;;
32323;SDS011;25666;44.350;9.222;2023-07-29T00:57:19;8.15;;;5.30;;
32323;SDS011;25666;44.350;9.222;2023-07-29T00:59:44;11.25;;;5.78;;
32323;SDS011;25666;44.350;9.222;2023-07-29T01:02:10;6.82;;;4.82;;
32323;SDS011;25666;44.350;9.222;2023-07-29T01:04:35;9.05;;;5.00;;
32323;SDS011;25666;44.350;9.222;2023-07-29T01:10:05;10.85;;;5.53;;
32323;SDS011;25666;44.350;9.222;2023-07-29T01:12:48;6.55;;;4.90;;
32323;SDS011;25666;44.350;9.222;2023-07-29T01:15:28;8.70;;;4.93;;
32323;SDS011;25666;44.350;9.222;2023-07-29T01:17:55;7.63;;;5.55;;
32323;SDS011;25666;44.350;9.222;2023-07-29T01:20:24;10.13;;;4.90;;
32323;SDS011;25666;44.350;9.222;2023-07-29T01:22:51;6.60;;;5.35;;
32323;SDS011;25666;44.350;9.222;2023-07-29T01:25:16;14.27;;;5.38;;
32323;SDS011;25666;44.350;9.222;2023-07-29T01:27:44;12.35;;;5.53;;
32323;SDS011;25666;44.350;9.222;2023-07-29T01:30:10;9.35;;;5.28;;
32323;SDS011;25666;44.350;9.222;2023-07-29T01:32:50;11.85;;;5.47;;
32323;SDS011;25666;44.350;9.222;2023-07-29T01:37:51;13.35;;;5.40;;
32323;SDS011;25666;44.350;9.222;2023-07-29T01:40:21;10.10;;;5.03;;
32323;SDS011;25666;44.350;9.222;2023-07-29T01:42:48;9.25;;;5.00;;
32323;SDS011;25666;44.350;9.222;2023-07-29T01:45:14;9.00;;;5.05;;
32323;SDS011;25666;44.350;9.222;2023-07-29T01:47:40;10.40;;;5.03;;
32323;SDS011;25666;44.350;9.222;2023-07-29T01:50:07;11.63;;;6.10;;
32323;SDS011;25666;44.350;9.222;2023-07-29T01:52:33;7.93;;;5.07;;
32323;SDS011;25666;44.350;9.222;2023-07-29T01:54:58;6.93;;;4.70;;
32323;SDS011;25666;44.350;9.222;2023-07-29T01:57:24;6.75;;;4.15;;
32323;SDS011;25666;44.350;9.222;2023-07-29T01:59:50;9.55;;;5.40;;
32323;SDS011;25666;44.350;9.222;2023-07-29T02:02:15;9.10;;;4.63;;
32323;SDS011;25666;44.350;9.222;2023-07-29T02:04:41;10.52;;;5.30;;
32323;SDS011;25666;44.350;9.222;2023-07-29T02:07:06;7.35;;;4.55;;
32323;SDS011;25666;44.350;9.222;2023-07-29T02:09:32;5.78;;;4.25;;
32323;SDS011;25666;44.350;9.222;2023-07-29T02:11:57;7.47;;;5.00;;
32323;SDS011;25666;44.350;9.222;2023-07-29T02:14:23;7.72;;;5.03;;
32323;SDS011;25666;44.350;9.222;2023-07-29T02:16:49;7.90;;;4.32;;
32323;SDS011;25666;44.350;9.222;2023-07-29T02:19:15;6.22;;;4.38;;
32323;SDS011;25666;44.350;9.222;2023-07-29T02:21:41;8.23;;;5.00;;
32323;SDS011;25666;44.350;9.222;2023-07-29T02:24:06;15.30;;;4.72;;
32323;SDS011;25666;44.350;9.222;2023-07-29T02:26:32;8.80;;;4.75;;
32323;SDS011;25666;44.350;9.222;2023-07-29T02:28:57;9.60;;;5.63;;
32323;SDS011;25666;44.350;9.222;2023-07-29T02:31:24;7.00;;;4.95;;
32323;SDS011;25666;44.350;9.222;2023-07-29T02:33:50;14.35;;;4.15;;
32323;SDS011;25666;44.350;9.222;2023-07-29T02:36:16;12.45;;;4.82;;
32323;SDS011;25666;44.350;9.222;2023-07-29T02:38:42;10.15;;;4.28;;
32323;SDS011;25666;44.350;9.222;2023-07-29T02:41:09;13.27;;;5.03;;
32323;SDS011;25666;44.350;9.222;2023-07-29T02:43:37;13.50;;;5.10;;
32323;SDS011;25666;44.350;9.222;2023-07-29T02:46:03;10.93;;;5.60;;
32323;SDS011;25666;44.350;9.222;2023-07-29T02:48:28;11.98;;;5.65;;
32323;SDS011;25666;44.350;9.222;2023-07-29T02:50:54;8.52;;;4.75;;
32323;SDS011;25666;44.350;9.222;2023-07-29T02:53:21;17.38;;;4.95;;
32323;SDS011;25666;44.350;9.222;2023-07-29T02:55:47;19.55;;;4.88;;
32323;SDS011;25666;44.350;9.222;2023-07-29T02:58:13;6.47;;;4.32;;
32323;SDS011;25666;44.350;9.222;2023-07-29T03:00:39;8.55;;;5.50;;
32323;SDS011;25666;44.350;9.222;2023-07-29T03:03:07;5.68;;;4.82;;
32323;SDS011;25666;44.350;9.222;2023-07-29T03:05:33;11.73;;;5.18;;
32323;SDS011;25666;44.350;9.222;2023-07-29T03:07:59;5.78;;;4.22;;
32323;SDS011;25666;44.350;9.222;2023-07-29T03:10:24;8.73;;;5.32;;
32323;SDS011;25666;44.350;9.222;2023-07-29T03:12:50;5.63;;;4.88;;
32323;SDS011;25666;44.350;9.222;2023-07-29T03:15:16;10.75;;;5.85;;
32323;SDS011;25666;44.350;9.222;2023-07-29T03:17:41;8.43;;;5.13;;
32323;SDS011;25666;44.350;9.222;2023-07-29T03:20:07;7.50;;;5.93;;
32323;SDS011;25666;44.350;9.222;2023-07-29T03:22:33;16.55;;;6.03;;
32323;SDS011;25666;44.350;9.222;2023-07-29T03:24:58;13.10;;;5.55;;
32323;SDS011;25666;44.350;9.222;2023-07-29T03:27:24;7.55;;;4.32;;
32323;SDS011;25666;44.350;9.222;2023-07-29T03:29:49;10.30;;;5.28;;
32323;SDS011;25666;44.350;9.222;2023-07-29T03:32:15;9.40;;;4.75;;
32323;SDS011;25666;44.350;9.222;2023-07-29T03:34:40;17.40;;;5.18;;
32323;SDS011;25666;44.350;9.222;2023-07-29T03:37:06;13.93;;;4.97;;
32323;SDS011;25666;44.350;9.222;2023-07-29T03:39:31;12.98;;;5.47;;
32323;SDS011;25666;44.350;9.222;2023-07-29T03:41:57;12.90;;;4.85;;
32323;SDS011;25666;44.350;9.222;2023-07-29T03:44:23;9.48;;;5.13;;
32323;SDS011;25666;44.350;9.222;2023-07-29T03:46:49;8.07;;;4.88;;
32323;SDS011;25666;44.350;9.222;2023-07-29T03:49:14;8.23;;;4.55;;
32323;SDS011;25666;44.350;9.222;2023-07-29T03:51:39;7.78;;;4.97;;
32323;SDS011;25666;44.350;9.222;2023-07-29T03:54:06;13.30;;;5.10;;
32323;SDS011;25666;44.350;9.222;2023-07-29T03:56:31;9.52;;;4.50;;
32323;SDS011;25666;44.350;9.222;2023-07-29T03:59:04;6.30;;;4.75;;
32323;SDS011;25666;44.350;9.222;2023-07-29T04:01:30;10.63;;;4.82;;
32323;SDS011;25666;44.350;9.222;2023-07-29T04:03:56;7.18;;;4.13;;
32323;SDS011;25666;44.350;9.222;2023-07-29T04:06:21;11.50;;;5.45;;
32323;SDS011;25666;44.350;9.222;2023-07-29T04:08:48;9.55;;;5.40;;
32323;SDS011;25666;44.350;9.222;2023-07-29T04:11:14;9.70;;;5.28;;
32323;SDS011;25666;44.350;9.222;2023-07-29T04:13:40;14.98;;;5.32;;
32323;SDS011;25666;44.350;9.222;2023-07-29T04:16:06;10.15;;;5.30;;
32323;SDS011;25666;44.350;9.222;2023-07-29T04:18:31;10.93;;;5.18;;
32323;SDS011;25666;44.350;9.222;2023-07-29T04:20:58;9.38;;;4.35;;
32323;SDS011;25666;44.350;9.222;2023-07-29T04:23:23;8.15;;;4.43;;
32323;SDS011;25666;44.350;9.222;2023-07-29T04:25:49;11.35;;;5.65;;
32323;SDS011;25666;44.350;9.222;2023-07-29T04:28:15;12.20;;;5.38;;
32323;SDS011;25666;44.350;9.222;2023-07-29T04:30:41;11.75;;;4.78;;
32323;SDS011;25666;44.350;9.222;2023-07-29T04:33:07;12.25;;;5.22;;
32323;SDS011;25666;44.350;9.222;2023-07-29T04:35:32;11.35;;;6.28;;
32323;SDS011;25666;44.350;9.222;2023-07-29T04:37:58;11.43;;;5.15;;
32323;SDS011;25666;44.350;9.222;2023-07-29T04:40:23;13.57;;;4.78;;
32323;SDS011;25666;44.350;9.222;2023-07-29T04:42:49;6.43;;;4.90;;
32323;SDS011;25666;44.350;9.222;2023-07-29T04:45:16;10.77;;;4.55;;
32323;SDS011;25666;44.350;9.222;2023-07-29T04:47:41;6.82;;;5.13;;
32323;SDS011;25666;44.350;9.222;2023-07-29T04:50:07;8.35;;;4.47;;
32323;SDS011;25666;44.350;9.222;2023-07-29T04:52:33;13.55;;;5.20;;
32323;SDS011;25666;44.350;9.222;2023-07-29T04:54:58;8.20;;;4.32;;
32323;SDS011;25666;44.350;9.222;2023-07-29T04:57:24;8.75;;;4.43;;
32323;SDS011;25666;44.350;9.222;2023-07-29T04:59:49;6.43;;;4.63;;
32323;SDS011;25666;44.350;9.222;2023-07-29T05:02:15;6.45;;;3.83;;
32323;SDS011;25666;44.350;9.222;2023-07-29T05:04:40;10.40;;;4.70;;
32323;SDS011;25666;44.350;9.222;2023-07-29T05:07:06;15.15;;;4.15;;
32323;SDS011;25666;44.350;9.222;2023-07-29T05:09:32;11.15;;;4.28;;
32323;SDS011;25666;44.350;9.222;2023-07-29T05:11:57;9.63;;;5.13;;
32323;SDS011;25666;44.350;9.222;2023-07-29T05:14:23;6.93;;;4.05;;
32323;SDS011;25666;44.350;9.222;2023-07-29T05:16:48;12.23;;;4.82;;
32323;SDS011;25666;44.350;9.222;2023-07-29T05:19:14;8.50;;;4.88;;
32323;SDS011;25666;44.350;9.222;2023-07-29T05:21:40;5.18;;;4.13;;
32323;SDS011;25666;44.350;9.222;2023-07-29T05:24:05;10.18;;;5.00;;
32323;SDS011;25666;44.350;9.222;2023-07-29T05:26:31;9.35;;;5.25;;
32323;SDS011;25666;44.350;9.222;2023-07-29T05:28:57;8.48;;;4.20;;
32323;SDS011;25666;44.350;9.222;2023-07-29T05:31:22;7.35;;;3.80;;
32323;SDS011;25666;44.350;9.222;2023-07-29T05:33:48;9.38;;;4.53;;
32323;SDS011;25666;44.350;9.222;2023-07-29T05:36:14;7.65;;;4.68;;
32323;SDS011;25666;44.350;9.222;2023-07-29T05:38:39;10.50;;;5.13;;
32323;SDS011;25666;44.350;9.222;2023-07-29T05:41:05;11.85;;;5.80;;
32323;SDS011;25666;44.350;9.222;2023-07-29T05:43:30;10.55;;;4.97;;
32323;SDS011;25666;44.350;9.222;2023-07-29T05:45:56;9.63;;;5.25;;
32323;SDS011;25666;44.350;9.222;2023-07-29T05:48:21;13.30;;;6.28;;
32323;SDS011;25666;44.350;9.222;2023-07-29T05:50:47;15.77;;;5.68;;
32323;SDS011;25666;44.350;9.222;2023-07-29T05:53:13;6.82;;;4.88;;
32323;SDS011;25666;44.350;9.222;2023-07-29T05:55:39;9.98;;;5.85;;
32323;SDS011;25666;44.350;9.222;2023-07-29T05:58:05;13.55;;;5.72;;
32323;SDS011;25666;44.350;9.222;2023-07-29T06:00:31;17.35;;;5.63;;
32323;SDS011;25666;44.350;9.222;2023-07-29T06:02:58;11.95;;;5.75;;
32323;SDS011;25666;44.350;9.222;2023-07-29T06:05:24;12.45;;;6.40;;
32323;SDS011;25666;44.350;9.222;2023-07-29T06:07:51;7.97;;;5.25;;
32323;SDS011;25666;44.350;9.222;2023-07-29T06:10:16;11.55;;;5.10;;
32323;SDS011;25666;44.350;9.222;2023-07-29T06:12:45;10.02;;;5.10;;
32323;SDS011;25666;44.350;9.222;2023-07-29T06:15:11;6.45;;;4.70;;
32323;SDS011;25666;44.350;9.222;2023-07-29T06:17:37;12.35;;;5.10;;
32323;SDS011;25666;44.350;9.222;2023-07-29T06:20:04;12.48;;;4.85;;
32323;SDS011;25666;44.350;9.222;2023-07-29T06:22:31;13.93;;;5.95;;
32323;SDS011;25666;44.350;9.222;2023-07-29T06:24:56;13.35;;;5.28;;
32323;SDS011;25666;44.350;9.222;2023-07-29T06:27:22;9.18;;;5.07;;
32323;SDS011;25666;44.350;9.222;2023-07-29T06:29:49;12.45;;;4.82;;
32323;SDS011;25666;44.350;9.222;2023-07-29T06:32:15;9.30;;;4.50;;
32323;SDS011;25666;44.350;9.222;2023-07-29T06:34:40;6.53;;;3.88;;
32323;SDS011;25666;44.350;9.222;2023-07-29T06:37:06;9.45;;;4.35;;
32323;SDS011;25666;44.350;9.222;2023-07-29T06:39:31;12.43;;;4.55;;
32323;SDS011;25666;44.350;9.222;2023-07-29T06:41:57;9.30;;;4.45;;
32323;SDS011;25666;44.350;9.222;2023-07-29T06:44:23;6.13;;;4.40;;
32323;SDS011;25666;44.350;9.222;2023-07-29T06:46:48;11.32;;;5.40;;
32323;SDS011;25666;44.350;9.222;2023-07-29T06:49:14;9.00;;;4.28;;
32323;SDS011;25666;44.350;9.222;2023-07-29T06:51:39;4.63;;;3.03;;
32323;SDS011;25666;44.350;9.222;2023-07-29T06:54:05;10.30;;;3.80;;
32323;SDS011;25666;44.350;9.222;2023-07-29T06:56:31;11.90;;;4.35;;
32323;SDS011;25666;44.350;9.222;2023-07-29T06:58:57;20.80;;;4.28;;
32323;SDS011;25666;44.350;9.222;2023-07-29T07:01:22;8.20;;;3.75;;
32323;SDS011;25666;44.350;9.222;2023-07-29T07:03:48;11.98;;;3.55;;
32323;SDS011;25666;44.350;9.222;2023-07-29T07:06:13;8.90;;;3.85;;
32323;SDS011;25666;44.350;9.222;2023-07-29T07:08:39;9.32;;;4.28;;
32323;SDS011;25666;44.350;9.222;2023-07-29T07:11:04;7.88;;;3.72;;
32323;SDS011;25666;44.350;9.222;2023-07-29T07:13:30;9.40;;;3.25;;
32323;SDS011;25666;44.350;9.222;2023-07-29T07:15:55;8.07;;;3.50;;
32323;SDS011;25666;44.350;9.222;2023-07-29T07:18:21;8.63;;;3.00;;
32323;SDS011;25666;44.350;9.222;2023-07-29T07:20:50;8.50;;;4.32;;
32323;SDS011;25666;44.350;9.222;2023-07-29T07:23:16;6.10;;;2.95;;
32323;SDS011;25666;44.350;9.222;2023-07-29T07:25:46;8.40;;;3.40;;
32323;SDS011;25666;44.350;9.222;2023-07-29T07:28:11;8.10;;;3.08;;
32323;SDS011;25666;44.350;9.222;2023-07-29T07:30:40;4.47;;;2.75;;
32323;SDS011;25666;44.350;9.222;2023-07-29T07:33:08;12.65;;;2.78;;
32323;SDS011;25666;44.350;9.222;2023-07-29T07:35:34;6.45;;;2.65;;
32323;SDS011;25666;44.350;9.222;2023-07-29T07:37:59;6.70;;;3.13;;
32323;SDS011;25666;44.350;9.222;2023-07-29T07:40:27;7.43;;;2.58;;
32323;SDS011;25666;44.350;9.222;2023-07-29T07:42:52;7.65;;;3.20;;
32323;SDS011;25666;44.350;9.222;2023-07-29T07:45:18;4.57;;;2.70;;
32323;SDS011;25666;44.350;9.222;2023-07-29T07:47:44;4.85;;;2.55;;
32323;SDS011;25666;44.350;9.222;2023-07-29T07:50:10;4.63;;;2.63;;
32323;SDS011;25666;44.350;9.222;2023-07-29T07:52:35;6.55;;;2.30;;
32323;SDS011;25666;44.350;9.222;2023-07-29T07:55:01;3.75;;;2.50;;
32323;SDS011;25666;44.350;9.222;2023-07-29T07:57:26;7.65;;;2.70;;
32323;SDS011;25666;44.350;9.222;2023-07-29T07:59:52;4.85;;;2.65;;
32323;SDS011;25666;44.350;9.222;2023-07-29T08:02:18;7.82;;;2.60;;
32323;SDS011;25666;44.350;9.222;2023-07-29T08:04:43;6.05;;;2.58;;
32323;SDS011;25666;44.350;9.222;2023-07-29T08:07:09;3.70;;;2.83;;
32323;SDS011;25666;44.350;9.222;2023-07-29T08:09:34;8.52;;;2.65;;
32323;SDS011;25666;44.350;9.222;2023-07-29T08:12:00;3.50;;;2.60;;
32323;SDS011;25666;44.350;9.222;2023-07-29T08:14:25;6.82;;;2.67;;
32323;SDS011;25666;44.350;9.222;2023-07-29T08:16:52;4.90;;;2.75;;
32323;SDS011;25666;44.350;9.222;2023-07-29T08:19:17;6.78;;;2.70;;
32323;SDS011;25666;44.350;9.222;2023-07-29T08:21:43;6.05;;;3.35;;
32323;SDS011;25666;44.350;9.222;2023-07-29T08:24:08;6.78;;;3.03;;
32323;SDS011;25666;44.350;9.222;2023-07-29T08:26:34;8.68;;;2.58;;
32323;SDS011;25666;44.350;9.222;2023-07-29T08:28:59;7.32;;;2.90;;
32323;SDS011;25666;44.350;9.222;2023-07-29T08:31:25;4.35;;;2.80;;
32323;SDS011;25666;44.350;9.222;2023-07-29T08:33:50;7.32;;;2.97;;
32323;SDS011;25666;44.350;9.222;2023-07-29T08:36:16;6.20;;;3.28;;
32323;SDS011;25666;44.350;9.222;2023-07-29T08:38:41;4.85;;;2.53;;
32323;SDS011;25666;44.350;9.222;2023-07-29T08:41:16;7.85;;;3.35;;
32323;SDS011;25666;44.350;9.222;2023-07-29T08:43:50;6.88;;;2.97;;
32323;SDS011;25666;44.350;9.222;2023-07-29T08:46:19;5.25;;;2.78;;
32323;SDS011;25666;44.350;9.222;2023-07-29T08:48:44;10.98;;;3.20;;
32323;SDS011;25666;44.350;9.222;2023-07-29T08:51:11;8.10;;;3.35;;
32323;SDS011;25666;44.350;9.222;2023-07-29T08:53:37;6.63;;;3.08;;
32323;SDS011;25666;44.350;9.222;2023-07-29T08:56:04;5.97;;;3.17;;
32323;SDS011;25666;44.350;9.222;2023-07-29T08:58:30;7.00;;;3.67;;
32323;SDS011;25666;44.350;9.222;2023-07-29T09:00:57;4.47;;;3.30;;
32323;SDS011;25666;44.350;9.222;2023-07-29T09:03:22;8.10;;;3.40;;
32323;SDS011;25666;44.350;9.222;2023-07-29T09:05:48;6.68;;;3.08;;
32323;SDS011;25666;44.350;9.222;2023-07-29T09:08:15;8.73;;;3.08;;
32323;SDS011;25666;44.350;9.222;2023-07-29T09:10:41;9.63;;;3.72;;
32323;SDS011;25666;44.350;9.222;2023-07-29T09:13:07;9.50;;;3.42;;
32323;SDS011;25666;44.350;9.222;2023-07-29T09:15:33;6.53;;;2.90;;
32323;SDS011;25666;44.350;9.222;2023-07-29T09:18:17;5.30;;;3.05;;
32323;SDS011;25666;44.350;9.222;2023-07-29T09:20:47;4.63;;;2.67;;
32323;SDS011;25666;44.350;9.222;2023-07-29T09:23:14;6.40;;;3.10;;
32323;SDS011;25666;44.350;9.222;2023-07-29T09:25:40;4.43;;;2.60;;
32323;SDS011;25666;44.350;9.222;2023-07-29T09:28:10;7.15;;;2.55;;
32323;SDS011;25666;44.350;9.222;2023-07-29T09:30:41;6.03;;;3.00;;
32323;SDS011;25666;44.350;9.222;2023-07-29T09:33:08;5.82;;;2.85;;
32323;SDS011;25666;44.350;9.222;2023-07-29T09:35:36;5.20;;;2.97;;
32323;SDS011;25666;44.350;9.222;2023-07-29T09:38:03;4.78;;;2.88;;
32323;SDS011;25666;44.350;9.222;2023-07-29T09:40:36;4.57;;;2.70;;
32323;SDS011;25666;44.350;9.222;2023-07-29T09:43:04;5.68;;;2.63;;
32323;SDS011;25666;44.350;9.222;2023-07-29T09:45:30;7.88;;;2.72;;
32323;SDS011;25666;44.350;9.222;2023-07-29T09:47:58;6.13;;;2.70;;
32323;SDS011;25666;44.350;9.222;2023-07-29T09:50:24;4.18;;;2.40;;
32323;SDS011;25666;44.350;9.222;2023-07-29T09:52:50;9.75;;;3.58;;
32323;SDS011;25666;44.350;9.222;2023-07-29T09:55:18;4.70;;;2.80;;
32323;SDS011;25666;44.350;9.222;2023-07-29T09:57:45;6.68;;;2.80;;
32323;SDS011;25666;44.350;9.222;2023-07-29T10:00:11;5.25;;;2.35;;
32323;SDS011;25666;44.350;9.222;2023-07-29T10:02:41;6.10;;;2.90;;
32323;SDS011;25666;44.350;9.222;2023-07-29T10:05:08;7.83;;;3.20;;
32323;SDS011;25666;44.350;9.222;2023-07-29T10:07:38;4.00;;;2.92;;
32323;SDS011;25666;44.350;9.222;2023-07-29T10:10:05;4.55;;;2.17;;
32323;SDS011;25666;44.350;9.222;2023-07-29T10:12:32;4.40;;;2.85;;
32323;SDS011;25666;44.350;9.222;2023-07-29T10:14:59;5.50;;;3.15;;
32323;SDS011;25666;44.350;9.222;2023-07-29T10:17:27;6.00;;;2.70;;
32323;SDS011;25666;44.350;9.222;2023-07-29T10:19:55;4.28;;;2.20;;
32323;SDS011;25666;44.350;9.222;2023-07-29T10:22:25;7.57;;;3.05;;
32323;SDS011;25666;44.350;9.222;2023-07-29T10:24:59;6.75;;;2.67;;
32323;SDS011;25666;44.350;9.222;2023-07-29T10:27:32;4.57;;;2.80;;
32323;SDS011;25666;44.350;9.222;2023-07-29T10:32:46;6.00;;;3.05;;
32323;SDS011;25666;44.350;9.222;2023-07-29T10:35:14;8.68;;;2.72;;
32323;SDS011;25666;44.350;9.222;2023-07-29T10:37:41;6.78;;;3.10;;
32323;SDS011;25666;44.350;9.222;2023-07-29T10:40:10;9.98;;;2.95;;
32323;SDS011;25666;44.350;9.222;2023-07-29T10:42:37;4.40;;;2.60;;
32323;SDS011;25666;44.350;9.222;2023-07-29T10:45:16;6.70;;;2.55;;
32323;SDS011;25666;44.350;9.222;2023-07-29T10:47:45;6.05;;;2.95;;
32323;SDS011;25666;44.350;9.222;2023-07-29T10:50:21;8.02;;;3.28;;
32323;SDS011;25666;44.350;9.222;2023-07-29T10:52:51;5.10;;;2.90;;
32323;SDS011;25666;44.350;9.222;2023-07-29T10:57:48;5.65;;;2.88;;
32323;SDS011;25666;44.350;9.222;2023-07-29T11:00:15;5.07;;;2.78;;
32323;SDS011;25666;44.350;9.222;2023-07-29T11:02:41;5.28;;;3.00;;
32323;SDS011;25666;44.350;9.222;2023-07-29T11:05:07;9.20;;;2.38;;
32323;SDS011;25666;44.350;9.222;2023-07-29T11:07:45;4.18;;;2.70;;
32323;SDS011;25666;44.350;9.222;2023-07-29T11:10:11;6.93;;;2.95;;
32323;SDS011;25666;44.350;9.222;2023-07-29T11:17:42;6.13;;;2.70;;
32323;SDS011;25666;44.350;9.222;2023-07-29T11:20:07;7.93;;;3.58;;
32323;SDS011;25666;44.350;9.222;2023-07-29T11:22:34;3.22;;;2.55;;
32323;SDS011;25666;44.350;9.222;2023-07-29T11:25:00;5.90;;;2.55;;
32323;SDS011;25666;44.350;9.222;2023-07-29T11:27:25;14.32;;;3.40;;
32323;SDS011;25666;44.350;9.222;2023-07-29T11:30:02;7.13;;;2.60;;
32323;SDS011;25666;44.350;9.222;2023-07-29T11:32:30;7.35;;;3.58;;
32323;SDS011;25666;44.350;9.222;2023-07-29T11:34:57;8.13;;;2.95;;
32323;SDS011;25666;44.350;9.222;2023-07-29T11:37:26;5.93;;;2.83;;
32323;SDS011;25666;44.350;9.222;2023-07-29T11:39:51;3.05;;;2.50;;
32323;SDS011;25666;44.350;9.222;2023-07-29T11:42:17;4.95;;;2.97;;
32323;SDS011;25666;44.350;9.222;2023-07-29T11:44:43;6.75;;;3.65;;
32323;SDS011;25666;44.350;9.222;2023-07-29T11:47:09;4.43;;;2.40;;
32323;SDS011;25666;44.350;9.222;2023-07-29T11:49:35;6.40;;;3.05;;
32323;SDS011;25666;44.350;9.222;2023-07-29T11:52:03;5.55;;;3.15;;
32323;SDS011;25666;44.350;9.222;2023-07-29T11:54:31;7.63;;;3.25;;
32323;SDS011;25666;44.350;9.222;2023-07-29T11:56:56;12.93;;;3.65;;
32323;SDS011;25666;44.350;9.222;2023-07-29T11:59:22;5.85;;;2.60;;
32323;SDS011;25666;44.350;9.222;2023-07-29T12:01:48;4.10;;;2.63;;
32323;SDS011;25666;44.350;9.222;2023-07-29T12:04:14;5.18;;;3.13;;
32323;SDS011;25666;44.350;9.222;2023-07-29T12:06:40;6.72;;;2.90;;
32323;SDS011;25666;44.350;9.222;2023-07-29T12:09:06;9.70;;;6.13;;
32323;SDS011;25666;44.350;9.222;2023-07-29T12:11:32;4.82;;;3.05;;
32323;SDS011;25666;44.350;9.222;2023-07-29T12:14:01;4.63;;;3.28;;
32323;SDS011;25666;44.350;9.222;2023-07-29T12:16:27;3.13;;;2.63;;
32323;SDS011;25666;44.350;9.222;2023-07-29T12:18:59;5.35;;;3.00;;
32323;SDS011;25666;44.350;9.222;2023-07-29T12:21:25;5.43;;;2.85;;
32323;SDS011;25666;44.350;9.222;2023-07-29T12:23:51;2.95;;;2.67;;
32323;SDS011;25666;44.350;9.222;2023-07-29T12:26:16;8.52;;;2.70;;
32323;SDS011;25666;44.350;9.222;2023-07-29T12:28:45;4.85;;;2.72;;
32323;SDS011;25666;44.350;9.222;2023-07-29T12:31:11;5.53;;;3.22;;
32323;SDS011;25666;44.350;9.222;2023-07-29T12:33:37;7.22;;;3.20;;
32323;SDS011;25666;44.350;9.222;2023-07-29T12:36:04;7.43;;;3.55;;
32323;SDS011;25666;44.350;9.222;2023-07-29T12:38:30;5.68;;;2.60;;
32323;SDS011;25666;44.350;9.222;2023-07-29T12:40:56;5.38;;;2.55;;
32323;SDS011;25666;44.350;9.222;2023-07-29T12:43:21;6.40;;;3.05;;
32323;SDS011;25666;44.350;9.222;2023-07-29T12:45:50;3.85;;;2.50;;
32323;SDS011;25666;44.350;9.222;2023-07-29T12:48:15;7.25;;;2.75;;
32323;SDS011;25666;44.350;9.222;2023-07-29T12:50:41;6.85;;;2.30;;
32323;SDS011;25666;44.350;9.222;2023-07-29T12:53:07;3.90;;;2.30;;
32323;SDS011;25666;44.350;9.222;2023-07-29T12:55:35;6.53;;;3.13;;
32323;SDS011;25666;44.350;9.222;2023-07-29T12:58:01;3.30;;;2.95;;
32323;SDS011;25666;44.350;9.222;2023-07-29T13:00:27;6.03;;;2.40;;
32323;SDS011;25666;44.350;9.222;2023-07-29T13:02:53;7.18;;;2.80;;
32323;SDS011;25666;44.350;9.222;2023-07-29T13:05:19;4.50;;;2.92;;
32323;SDS011;25666;44.350;9.222;2023-07-29T13:07:44;5.53;;;3.08;;
32323;SDS011;25666;44.350;9.222;2023-07-29T13:10:10;8.93;;;2.40;;
32323;SDS011;25666;44.350;9.222;2023-07-29T13:12:36;8.50;;;2.83;;
32323;SDS011;25666;44.350;9.222;2023-07-29T13:15:02;9.98;;;3.25;;
32323;SDS011;25666;44.350;9.222;2023-07-29T13:17:27;4.07;;;3.20;;
32323;SDS011;25666;44.350;9.222;2023-07-29T13:19:53;5.97;;;3.13;;
32323;SDS011;25666;44.350;9.222;2023-07-29T13:22:19;17.50;;;3.10;;
32323;SDS011;25666;44.350;9.222;2023-07-29T13:24:45;7.95;;;3.00;;
32323;SDS011;25666;44.350;9.222;2023-07-29T13:27:10;4.55;;;2.45;;
32323;SDS011;25666;44.350;9.222;2023-07-29T13:29:38;6.53;;;2.65;;
32323;SDS011;25666;44.350;9.222;2023-07-29T13:32:07;7.93;;;2.80;;
32323;SDS011;25666;44.350;9.222;2023-07-29T13:34:33;9.60;;;3.10;;
32323;SDS011;25666;44.350;9.222;2023-07-29T13:36:59;7.18;;;2.90;;
32323;SDS011;25666;44.350;9.222;2023-07-29T13:39:25;5.80;;;3.63;;
32323;SDS011;25666;44.350;9.222;2023-07-29T13:41:51;8.50;;;3.13;;
32323;SDS011;25666;44.350;9.222;2023-07-29T13:44:16;6.95;;;3.13;;
32323;SDS011;25666;44.350;9.222;2023-07-29T13:46:42;12.13;;;3.60;;
32323;SDS011;25666;44.350;9.222;2023-07-29T13:49:07;7.03;;;2.95;;
32323;SDS011;25666;44.350;9.222;2023-07-29T13:51:36;10.57;;;3.60;;
32323;SDS011;25666;44.350;9.222;2023-07-29T13:54:02;7.50;;;2.92;;
32323;SDS011;25666;44.350;9.222;2023-07-29T13:56:28;9.50;;;3.15;;
32323;SDS011;25666;44.350;9.222;2023-07-29T13:58:54;8.82;;;3.10;;
32323;SDS011;25666;44.350;9.222;2023-07-29T14:01:19;6.32;;;3.30;;
32323;SDS011;25666;44.350;9.222;2023-07-29T14:03:45;7.43;;;2.97;;
32323;SDS011;25666;44.350;9.222;2023-07-29T14:06:13;4.53;;;2.80;;
32323;SDS011;25666;44.350;9.222;2023-07-29T14:08:42;5.07;;;2.95;;
32323;SDS011;25666;44.350;9.222;2023-07-29T14:11:07;5.22;;;2.67;;
32323;SDS011;25666;44.350;9.222;2023-07-29T14:13:33;6.32;;;3.05;;
32323;SDS011;25666;44.350;9.222;2023-07-29T14:16:02;6.07;;;3.15;;
32323;SDS011;25666;44.350;9.222;2023-07-29T14:18:30;6.78;;;3.33;;
32323;SDS011;25666;44.350;9.222;2023-07-29T14:20:56;7.68;;;3.38;;
32323;SDS011;25666;44.350;9.222;2023-07-29T14:23:22;7.00;;;3.75;;
32323;SDS011;25666;44.350;9.222;2023-07-29T14:25:47;6.53;;;3.28;;
32323;SDS011;25666;44.350;9.222;2023-07-29T14:28:19;7.95;;;3.13;;
32323;SDS011;25666;44.350;9.222;2023-07-29T14:30:45;7.28;;;2.97;;
32323;SDS011;25666;44.350;9.222;2023-07-29T14:33:11;7.63;;;3.67;;
32323;SDS011;25666;44.350;9.222;2023-07-29T14:35:39;5.95;;;3.15;;
32323;SDS011;25666;44.350;9.222;2023-07-29T14:38:07;8.95;;;3.97;;
32323;SDS011;25666;44.350;9.222;2023-07-29T14:40:33;8.93;;;2.95;;
32323;SDS011;25666;44.350;9.222;2023-07-29T14:42:59;4.63;;;3.22;;
32323;SDS011;25666;44.350;9.222;2023-07-29T14:45:24;5.13;;;3.25;;
32323;SDS011;25666;44.350;9.222;2023-07-29T14:47:50;9.75;;;4.55;;
32323;SDS011;25666;44.350;9.222;2023-07-29T14:50:15;7.28;;;3.22;;
32323;SDS011;25666;44.350;9.222;2023-07-29T14:52:48;7.80;;;3.80;;
32323;SDS011;25666;44.350;9.222;2023-07-29T14:55:14;6.85;;;4.32;;
32323;SDS011;25666;44.350;9.222;2023-07-29T14:57:40;7.20;;;4.05;;